createdAt,value
2018-01-15T00:00:24.088Z,101348.03
2018-01-15T00:02:50.045Z,101345.18
2018-01-15T00:05:15.981Z,101333.88
2018-01-15T00:07:41.931Z,101330.62
2018-01-15T00:10:08.089Z,101324.92
2018-01-15T00:12:34.025Z,101315.77
2018-01-15T00:14:59.973Z,101320.30
2018-01-15T00:17:25.920Z,101323.16
2018-01-15T00:19:51.861Z,101317.73
2018-01-15T00:22:17.920Z,101306.68
2018-01-15T00:24:43.878Z,101310.83
2018-01-15T00:27:09.813Z,101309.80
2018-01-15T00:29:35.760Z,101304.24
2018-01-15T00:32:01.697Z,101296.95
2018-01-15T00:34:27.662Z,101294.30
2018-01-15T00:36:53.629Z,101292.48
2018-01-15T00:39:19.600Z,101279.11
2018-01-15T00:41:45.544Z,101276.95
2018-01-15T00:44:11.505Z,101279.60
2018-01-15T00:46:37.444Z,101282.75
2018-01-15T00:49:03.381Z,101273.83
2018-01-15T00:51:29.356Z,101283.44
2018-01-15T00:53:55.290Z,101281.52
2018-01-15T00:56:21.233Z,101282.89
2018-01-15T00:58:47.229Z,101272.41
2018-01-15T01:01:13.166Z,101265.25
2018-01-15T01:03:39.101Z,101259.33
2018-01-15T01:06:05.113Z,101261.23
2018-01-15T01:08:31.063Z,101260.41
2018-01-15T01:10:57.034Z,101256.25
2018-01-15T01:13:22.994Z,101259.48
2018-01-15T01:15:48.945Z,101254.91
2018-01-15T01:18:14.896Z,101256.63
2018-01-15T01:20:40.854Z,101257.58
2018-01-15T01:23:06.825Z,101255.52
2018-01-15T01:25:32.799Z,101247.29
2018-01-15T01:27:58.742Z,101244.44
2018-01-15T01:30:24.698Z,101243.05
2018-01-15T01:32:50.640Z,101242.37
2018-01-15T01:35:16.619Z,101238.17
2018-01-15T01:37:42.557Z,101232.13
2018-01-15T01:40:08.528Z,101231.84
2018-01-15T01:42:34.485Z,101231.23
2018-01-15T01:45:00.444Z,101226.36
2018-01-15T01:47:26.408Z,101233.11
2018-01-15T01:49:52.526Z,101223.87
2018-01-15T01:52:18.473Z,101222.91
2018-01-15T01:54:44.434Z,101211.33
2018-01-15T01:57:10.374Z,101207.61
2018-01-15T01:59:36.469Z,101200.95
2018-01-15T02:02:02.417Z,101193.43
2018-01-15T02:04:28.377Z,101194.59
2018-01-15T02:06:54.332Z,101190.30
2018-01-15T02:09:20.326Z,101195.59
2018-01-15T02:11:46.276Z,101187.79
2018-01-15T02:14:12.205Z,101192.59
2018-01-15T02:16:38.169Z,101186.92
2018-01-15T02:19:04.160Z,101184.05
2018-01-15T02:21:30.116Z,101189.08
2018-01-15T02:23:56.056Z,101173.24
2018-01-15T02:26:21.988Z,101169.94
2018-01-15T02:28:47.933Z,101170.79
2018-01-15T02:31:13.972Z,101163.98
2018-01-15T02:33:39.942Z,101163.61
2018-01-15T02:36:05.877Z,101163.15
2018-01-15T02:38:31.814Z,101158.06
2018-01-15T02:40:57.773Z,101154.94
2018-01-15T02:43:23.716Z,101158.48
2018-01-15T02:45:49.744Z,101148.96
2018-01-15T02:48:15.685Z,101154.80
2018-01-15T02:50:41.625Z,101150.81
2018-01-15T02:53:07.589Z,101141.17
2018-01-15T02:55:33.525Z,101141.23
2018-01-15T02:57:59.480Z,101141.63
2018-01-15T03:00:25.449Z,101133.40
2018-01-15T03:02:51.386Z,101131.70
2018-01-15T03:05:17.345Z,101123.78
2018-01-15T03:07:43.292Z,101113.30
2018-01-15T03:10:09.245Z,101110.33
2018-01-15T03:12:35.242Z,101104.20
2018-01-15T03:15:01.341Z,101093.17
2018-01-15T03:17:27.314Z,101102.33
2018-01-15T03:19:53.248Z,101105.05
2018-01-15T03:22:19.244Z,101099.30
2018-01-15T03:24:45.273Z,101092.33
2018-01-15T03:27:11.220Z,101083.45
2018-01-15T03:29:37.174Z,101074.06
2018-01-15T03:32:03.111Z,101071.63
2018-01-15T03:34:29.069Z,101068.04
2018-01-15T03:36:55.049Z,101067.91
2018-01-15T03:39:20.997Z,101068.36
2018-01-15T03:41:46.945Z,101062.55
2018-01-15T03:44:12.950Z,101052.53
2018-01-15T03:46:38.897Z,101051.84
2018-01-15T03:49:04.836Z,101041.36
2018-01-15T03:51:30.782Z,101044.58
2018-01-15T03:53:56.732Z,101037.13
2018-01-15T03:56:22.697Z,101037.77
2018-01-15T03:58:48.644Z,101029.82
2018-01-15T04:01:14.589Z,101023.87
2018-01-15T04:03:40.613Z,101021.48
2018-01-15T04:06:06.556Z,101022.46
2018-01-15T04:08:32.517Z,101019.48
2018-01-15T04:10:58.493Z,101004.97
2018-01-15T04:13:24.449Z,101003.67
2018-01-15T04:15:50.398Z,100998.42
2018-01-15T04:18:16.346Z,100998.19
2018-01-15T04:20:42.305Z,101000.34
2018-01-15T04:23:08.274Z,101014.39
2018-01-15T04:25:34.208Z,101008.83
2018-01-15T04:28:00.169Z,101004.11
2018-01-15T04:30:26.130Z,101005.16
2018-01-15T04:32:52.069Z,101004.47
2018-01-15T04:35:18.024Z,100999.94
2018-01-15T04:37:43.974Z,100988.20
2018-01-15T04:40:10.025Z,100988.76
2018-01-15T04:42:35.968Z,100985.36
2018-01-15T04:45:01.937Z,100983.72
2018-01-15T04:47:27.880Z,100977.95
2018-01-15T04:49:53.846Z,100967.55
2018-01-15T04:52:19.793Z,100960.75
2018-01-15T04:54:45.750Z,100961.66
2018-01-15T04:57:11.741Z,100951.63
2018-01-15T04:59:37.693Z,100949.30
2018-01-15T05:02:03.638Z,100946.24
2018-01-15T05:04:29.613Z,100941.66
2018-01-15T05:06:55.584Z,100940.34
2018-01-15T05:09:21.684Z,100943.89
2018-01-15T05:11:47.657Z,100941.91
2018-01-15T05:14:13.593Z,100945.45
2018-01-15T05:16:39.557Z,100943.09
2018-01-15T05:19:05.492Z,100939.01
2018-01-15T05:21:31.461Z,100938.66
2018-01-15T05:23:57.424Z,100928.31
2018-01-15T05:26:23.368Z,100922.35
2018-01-15T05:28:49.312Z,100922.57
2018-01-15T05:31:15.276Z,100918.55
2018-01-15T05:33:41.221Z,100917.66
2018-01-15T05:36:07.258Z,100910.00
2018-01-15T05:38:33.285Z,100910.20
2018-01-15T05:40:59.246Z,100909.28
2018-01-15T05:43:25.198Z,100907.56
2018-01-15T05:45:51.142Z,100906.94
2018-01-15T05:48:17.152Z,100900.45
2018-01-15T05:50:43.098Z,100901.31
2018-01-15T05:53:09.051Z,100895.88
2018-01-15T05:55:34.986Z,100895.41
2018-01-15T05:58:00.930Z,100891.20
2018-01-15T06:00:26.881Z,100888.27
2018-01-15T06:02:52.834Z,100883.45
2018-01-15T06:05:18.790Z,100881.48
2018-01-15T06:07:44.737Z,100879.65
2018-01-15T06:10:10.713Z,100878.08
2018-01-15T06:12:36.658Z,100873.73
2018-01-15T06:15:02.614Z,100868.15
2018-01-15T06:17:28.557Z,100863.25
2018-01-15T06:19:54.501Z,100858.52
2018-01-15T06:22:20.464Z,100857.34
2018-01-15T06:24:46.432Z,100849.94
2018-01-15T06:27:12.381Z,100845.56
2018-01-15T06:29:38.314Z,100845.20
2018-01-15T06:32:04.253Z,100841.81
2018-01-15T06:34:30.220Z,100838.68
2018-01-15T06:36:56.169Z,100842.23
2018-01-15T06:39:22.124Z,100830.02
2018-01-15T06:41:48.073Z,100827.76
2018-01-15T06:44:14.001Z,100829.84
2018-01-15T06:46:39.960Z,100816.31
2018-01-15T06:49:05.905Z,100808.58
2018-01-15T06:51:31.857Z,100805.52
2018-01-15T06:53:57.798Z,100800.73
2018-01-15T06:56:23.748Z,100800.30
2018-01-15T06:58:49.702Z,100801.40
2018-01-15T07:01:15.630Z,100793.39
2018-01-15T07:03:41.569Z,100786.37
2018-01-15T07:06:07.513Z,100786.92
2018-01-15T07:08:33.506Z,100786.10
2018-01-15T07:10:59.449Z,100780.23
2018-01-15T07:13:25.436Z,100781.94
2018-01-15T07:15:51.394Z,100774.58
2018-01-15T07:18:17.349Z,100779.00
2018-01-15T07:20:43.309Z,100767.30
2018-01-15T07:23:09.343Z,100760.65
2018-01-15T07:25:35.309Z,100762.90
2018-01-15T07:28:01.318Z,100759.37
2018-01-15T07:30:27.276Z,100752.50
2018-01-15T07:32:53.224Z,100760.29
2018-01-15T07:35:19.192Z,100759.50
2018-01-15T07:37:45.152Z,100757.83
2018-01-15T07:40:11.145Z,100751.41
2018-01-15T07:42:37.087Z,100753.83
2018-01-15T07:45:03.035Z,100749.97
2018-01-15T07:47:29.029Z,100737.73
2018-01-15T07:49:54.969Z,100738.61
2018-01-15T07:52:20.937Z,100745.69
2018-01-15T07:54:46.978Z,100750.59
2018-01-15T07:57:12.922Z,100739.45
2018-01-15T07:59:38.881Z,100739.31
2018-01-15T08:02:04.865Z,100731.45
2018-01-15T08:04:30.812Z,100747.78
2018-01-15T08:06:56.760Z,100735.10
2018-01-15T08:09:22.778Z,100726.84
2018-01-15T08:11:48.740Z,100724.70
2018-01-15T08:14:14.706Z,100725.03
2018-01-15T08:16:40.877Z,100724.20
2018-01-15T08:19:06.845Z,100723.40
2018-01-15T08:21:32.793Z,100722.63
2018-01-15T08:23:58.737Z,100714.50
2018-01-15T08:26:24.677Z,100716.98
2018-01-15T08:28:50.617Z,100718.20
2018-01-15T08:31:16.557Z,100708.45
2018-01-15T08:33:42.545Z,100709.67
2018-01-15T08:36:08.504Z,100708.77
2018-01-15T08:38:34.450Z,100707.61
2018-01-15T08:41:00.393Z,100695.97
2018-01-15T08:43:26.351Z,100702.92
2018-01-15T08:45:52.309Z,100698.73
2018-01-15T08:48:18.265Z,100693.78
2018-01-15T08:50:44.261Z,100684.80
2018-01-15T08:53:10.206Z,100686.80
2018-01-15T08:55:36.162Z,100680.56
2018-01-15T08:58:02.138Z,100678.75
2018-01-15T09:00:28.164Z,100668.27
2018-01-15T09:02:54.124Z,100666.03
2018-01-15T09:05:20.121Z,100654.64
2018-01-15T09:07:46.052Z,100649.69
2018-01-15T09:10:11.997Z,100639.15
2018-01-15T09:12:37.962Z,100638.66
2018-01-15T09:15:03.924Z,100631.77
2018-01-15T09:17:29.866Z,100628.81
2018-01-15T09:19:55.899Z,100624.13
2018-01-15T09:22:21.921Z,100623.16
2018-01-15T09:24:47.949Z,100616.42
2018-01-15T09:27:13.883Z,100609.68
2018-01-15T09:29:39.839Z,100599.25
2018-01-15T09:32:05.843Z,100602.52
2018-01-15T09:34:31.856Z,100607.31
2018-01-15T09:36:57.851Z,100593.28
2018-01-15T09:39:23.773Z,100594.28
2018-01-15T09:41:49.733Z,100591.69
2018-01-15T09:44:15.682Z,100584.03
2018-01-15T09:46:41.625Z,100585.81
2018-01-15T09:49:07.572Z,100585.41
2018-01-15T09:51:33.518Z,100589.00
2018-01-15T09:53:59.466Z,100579.16
2018-01-15T09:56:25.465Z,100579.56
2018-01-15T09:58:51.539Z,100577.95
2018-01-15T10:01:17.564Z,100568.48
2018-01-15T10:03:43.525Z,100569.80
2018-01-15T10:06:09.529Z,100571.64
2018-01-15T10:08:35.465Z,100563.72
2018-01-15T10:11:01.408Z,100561.08
2018-01-15T10:13:27.357Z,100557.28
2018-01-15T10:15:53.344Z,100553.27
2018-01-15T10:18:19.981Z,100550.27
2018-01-15T10:20:45.945Z,100536.95
2018-01-15T10:23:11.883Z,100534.09
2018-01-15T10:25:37.833Z,100536.88
2018-01-15T10:28:03.787Z,100531.19
2018-01-15T10:30:29.733Z,100521.38
2018-01-15T10:32:55.738Z,100511.19
2018-01-15T10:35:21.703Z,100510.64
2018-01-15T10:37:47.653Z,100508.58
2018-01-15T10:40:13.629Z,100497.95
2018-01-15T10:42:39.592Z,100484.33
2018-01-15T10:45:05.578Z,100475.62
2018-01-15T10:47:31.522Z,100467.84
2018-01-15T10:49:57.497Z,100460.06
2018-01-15T10:52:23.428Z,100458.22
2018-01-15T10:54:49.378Z,100451.68
2018-01-15T10:57:15.320Z,100451.36
2018-01-15T10:59:41.266Z,100437.47
2018-01-15T11:02:07.249Z,100428.70
2018-01-15T11:04:33.234Z,100411.96
2018-01-15T11:06:59.317Z,100403.06
2018-01-15T11:09:25.272Z,100400.08
2018-01-15T11:11:51.263Z,100397.08
2018-01-15T11:14:17.172Z,100382.14
2018-01-15T11:16:43.149Z,100392.20
2018-01-15T11:19:09.072Z,100386.13
2018-01-15T11:21:35.036Z,100376.95
2018-01-15T11:24:01.111Z,100368.21
2018-01-15T11:26:27.040Z,100358.16
2018-01-15T11:28:52.982Z,100354.50
2018-01-15T11:31:18.957Z,100341.45
2018-01-15T11:33:44.905Z,100349.54
2018-01-15T11:36:10.863Z,100343.84
2018-01-15T11:38:36.800Z,100329.66
2018-01-15T11:41:02.752Z,100333.30
2018-01-15T11:43:28.820Z,100315.88
2018-01-15T11:45:54.761Z,100309.30
2018-01-15T11:48:20.724Z,100293.20
2018-01-15T11:50:46.666Z,100273.73
2018-01-15T11:53:12.609Z,100265.16
2018-01-15T11:55:38.601Z,100255.33
2018-01-15T11:58:04.541Z,100246.16
2018-01-15T12:00:30.507Z,100233.36
2018-01-15T12:02:56.438Z,100229.82
2018-01-15T12:05:22.381Z,100225.43
2018-01-15T12:07:48.536Z,100220.25
2018-01-15T12:10:14.525Z,100204.89
2018-01-15T12:12:40.473Z,100200.58
2018-01-15T12:15:06.493Z,100196.44
2018-01-15T12:17:32.454Z,100184.66
2018-01-15T12:19:58.426Z,100181.98
2018-01-15T12:22:24.364Z,100165.56
2018-01-15T12:24:50.322Z,100155.99
2018-01-15T12:27:16.328Z,100145.25
2018-01-15T12:29:42.372Z,100133.03
2018-01-15T12:32:08.349Z,100129.72
2018-01-15T12:34:34.296Z,100101.50
2018-01-15T12:37:00.268Z,100087.13
2018-01-15T12:39:26.197Z,100082.19
2018-01-15T12:41:52.158Z,100069.38
2018-01-15T12:44:18.114Z,100056.67
2018-01-15T12:46:44.057Z,100049.06
2018-01-15T12:49:10.034Z,100042.52
2018-01-15T12:51:35.977Z,100034.37
2018-01-15T12:54:01.929Z,100022.80
2018-01-15T12:56:27.877Z,100017.51
2018-01-15T12:58:53.898Z,100007.84
2018-01-15T13:01:19.848Z,100003.73
2018-01-15T13:03:45.821Z,99989.86
2018-01-15T13:06:11.773Z,99987.77
2018-01-15T13:08:37.713Z,99976.60
2018-01-15T13:11:03.699Z,99959.98
2018-01-15T13:13:29.641Z,99956.08
2018-01-15T13:15:55.582Z,99950.03
2018-01-15T13:18:21.521Z,99943.77
2018-01-15T13:20:47.501Z,99941.55
2018-01-15T13:23:13.451Z,99935.91
2018-01-15T13:25:39.424Z,99929.89
2018-01-15T13:28:05.371Z,99922.22
2018-01-15T13:30:31.345Z,99913.12
2018-01-15T13:32:57.383Z,99902.86
2018-01-15T13:35:23.334Z,99894.21
2018-01-15T13:37:49.394Z,99889.91
2018-01-15T13:40:15.313Z,99883.11
2018-01-15T13:42:41.353Z,99889.86
2018-01-15T13:45:07.294Z,99886.20
2018-01-15T13:47:33.238Z,99889.23
2018-01-15T13:49:59.250Z,99905.34
2018-01-15T13:52:25.306Z,99907.48
2018-01-15T13:54:51.242Z,99900.34
2018-01-15T13:57:17.209Z,99896.88
2018-01-15T13:59:43.169Z,99893.28
2018-01-15T14:02:09.116Z,99891.59
2018-01-15T14:04:35.073Z,99878.27
2018-01-15T14:07:01.062Z,99861.41
2018-01-15T14:09:27.033Z,99848.01
2018-01-15T14:11:53.076Z,99835.75
2018-01-15T14:14:19.037Z,99828.33
2018-01-15T14:16:44.980Z,99822.75
2018-01-15T14:19:11.031Z,99816.01
2018-01-15T14:21:36.957Z,99798.69
2018-01-15T14:24:02.914Z,99780.36
2018-01-15T14:26:29.015Z,99773.20
2018-01-15T14:28:54.953Z,99773.17
2018-01-15T14:31:20.921Z,99765.89
2018-01-15T14:33:46.882Z,99755.16
2018-01-15T14:36:12.818Z,99757.66
2018-01-15T14:38:38.766Z,99749.94
2018-01-15T14:41:04.706Z,99747.83
2018-01-15T14:43:30.673Z,99736.19
2018-01-15T14:45:56.633Z,99725.39
2018-01-15T14:48:22.582Z,99709.48
2018-01-15T14:50:48.584Z,99704.89
2018-01-15T14:53:14.490Z,99697.39
2018-01-15T14:55:40.460Z,99699.17
2018-01-15T14:58:06.405Z,99685.12
2018-01-15T15:00:32.358Z,99678.30
2018-01-15T15:02:58.297Z,99671.33
2018-01-15T15:05:24.274Z,99661.92
2018-01-15T15:07:50.216Z,99646.56
2018-01-15T15:10:16.182Z,99636.17
2018-01-15T15:12:42.134Z,99627.09
2018-01-15T15:15:08.277Z,99617.98
2018-01-15T15:17:34.140Z,99612.97
2018-01-15T15:20:00.094Z,99601.47
2018-01-15T15:22:26.053Z,99596.88
2018-01-15T15:24:52.011Z,99591.46
2018-01-15T15:27:17.956Z,99579.30
2018-01-15T15:29:43.902Z,99567.34
2018-01-15T15:32:09.905Z,99555.59
2018-01-15T15:34:35.853Z,99553.94
2018-01-15T15:37:01.934Z,99555.09
2018-01-15T15:39:27.901Z,99544.28
2018-01-15T15:41:53.866Z,99534.77
2018-01-15T15:44:19.965Z,99534.33
2018-01-15T15:46:45.998Z,99517.16
2018-01-15T15:49:11.957Z,99513.80
2018-01-15T15:51:37.900Z,99500.80
2018-01-15T15:54:03.845Z,99488.57
2018-01-15T15:56:29.813Z,99480.34
2018-01-15T15:58:55.777Z,99473.91
2018-01-15T16:01:21.721Z,99462.26
2018-01-15T16:03:47.656Z,99451.52
2018-01-15T16:06:13.609Z,99448.38
2018-01-15T16:08:39.567Z,99441.27
2018-01-15T16:11:05.533Z,99424.59
2018-01-15T16:13:31.518Z,99426.00
2018-01-15T16:15:57.472Z,99420.47
2018-01-15T16:18:23.412Z,99415.09
2018-01-15T16:20:49.361Z,99402.42
2018-01-15T16:23:15.289Z,99397.30
2018-01-15T16:25:41.229Z,99383.52
2018-01-15T16:28:07.176Z,99372.80
2018-01-15T16:30:33.121Z,99371.11
2018-01-15T16:32:59.065Z,99358.30
2018-01-15T16:35:25.019Z,99353.78
2018-01-15T16:37:50.965Z,99348.70
2018-01-15T16:40:16.901Z,99350.22
2018-01-15T16:42:43.035Z,99341.81
2018-01-15T16:45:09.005Z,99345.09
2018-01-15T16:47:34.968Z,99333.01
2018-01-15T16:50:00.949Z,99337.14
2018-01-15T16:52:26.935Z,99327.01
2018-01-15T16:54:52.915Z,99321.75
2018-01-15T16:57:18.860Z,99313.91
2018-01-15T16:59:44.826Z,99304.66
2018-01-15T17:02:10.778Z,99302.34
2018-01-15T17:04:36.726Z,99289.52
2018-01-15T17:07:02.701Z,99284.31
2018-01-15T17:09:28.632Z,99279.77
2018-01-15T17:11:54.612Z,99265.59
2018-01-15T17:14:20.558Z,99255.73
2018-01-15T17:16:46.532Z,99248.17
2018-01-15T17:19:13.725Z,99236.20
2018-01-15T17:21:39.679Z,99235.90
2018-01-15T17:24:05.733Z,99230.56
2018-01-15T17:26:31.668Z,99211.03
2018-01-15T17:28:57.638Z,99210.08
2018-01-15T17:31:23.584Z,99206.40
2018-01-15T17:33:49.640Z,99204.41
2018-01-15T17:36:15.595Z,99202.26
2018-01-15T17:38:41.541Z,99195.45
2018-01-15T17:41:07.513Z,99182.26
2018-01-15T17:43:33.497Z,99190.80
2018-01-15T17:45:59.453Z,99179.28
2018-01-15T17:48:25.398Z,99176.63
2018-01-15T17:50:51.443Z,99163.30
2018-01-15T17:53:17.461Z,99157.27
2018-01-15T17:55:43.398Z,99164.17
2018-01-15T17:58:09.428Z,99152.62
2018-01-15T18:00:35.374Z,99153.97
2018-01-15T18:03:01.326Z,99148.37
2018-01-15T18:05:27.269Z,99139.01
2018-01-15T18:07:53.236Z,99123.28
2018-01-15T18:10:19.185Z,99133.97
2018-01-15T18:12:45.194Z,99114.36
2018-01-15T18:15:11.214Z,99116.05
2018-01-15T18:17:37.187Z,99105.15
2018-01-15T18:20:03.140Z,99108.83
2018-01-15T18:22:29.414Z,99107.09
2018-01-15T18:24:55.386Z,99103.36
2018-01-15T18:27:21.389Z,99091.19
2018-01-15T18:29:47.341Z,99091.70
2018-01-15T18:32:13.324Z,99089.80
2018-01-15T18:34:39.353Z,99100.33
2018-01-15T18:37:05.297Z,99091.47
2018-01-15T18:39:31.257Z,99067.41
2018-01-15T18:41:57.241Z,99073.97
2018-01-15T18:44:23.201Z,99070.17
2018-01-15T18:46:49.172Z,99069.89
2018-01-15T18:49:15.130Z,99043.19
2018-01-15T18:51:41.082Z,99038.48
2018-01-15T18:54:07.059Z,99051.17
2018-01-15T18:56:33.016Z,99041.92
2018-01-15T18:58:59.027Z,99039.17
2018-01-15T19:01:25.005Z,99025.56
2018-01-15T19:03:50.977Z,99021.82
2018-01-15T19:06:16.957Z,99021.70
2018-01-15T19:08:42.910Z,99014.70
2018-01-15T19:11:08.851Z,99020.37
2018-01-15T19:13:34.875Z,98994.27
2018-01-15T19:16:00.856Z,99000.05
2018-01-15T19:18:26.819Z,99025.26
2018-01-15T19:20:52.774Z,98996.91
2018-01-15T19:23:18.717Z,98992.53
2018-01-15T19:25:44.680Z,98999.72
2018-01-15T19:28:10.642Z,98987.83
2018-01-15T19:30:36.611Z,98982.25
2018-01-15T19:33:02.570Z,98965.37
2018-01-15T19:35:28.545Z,98966.05
2018-01-15T19:37:54.490Z,98958.41
2018-01-15T19:40:20.490Z,98949.46
2018-01-15T19:42:46.442Z,98942.41
2018-01-15T19:45:12.389Z,98951.30
2018-01-15T19:47:38.366Z,98944.06
2018-01-15T19:50:04.359Z,98927.78
2018-01-15T19:52:30.303Z,98926.75
2018-01-15T19:54:56.257Z,98927.37
2018-01-15T19:57:22.229Z,98915.20
2018-01-15T19:59:48.181Z,98912.84
2018-01-15T20:02:14.125Z,98918.05
2018-01-15T20:04:40.158Z,98918.02
2018-01-15T20:07:06.134Z,98916.77
2018-01-15T20:09:32.108Z,98908.66
2018-01-15T20:11:58.865Z,98919.84
2018-01-15T20:14:24.842Z,98896.16
2018-01-15T20:16:50.830Z,98904.19
2018-01-15T20:19:16.792Z,98902.46
2018-01-15T20:21:42.792Z,98907.45
2018-01-15T20:24:08.781Z,98900.16
2018-01-15T20:26:34.734Z,98894.80
2018-01-15T20:29:00.682Z,98891.28
2018-01-15T20:31:26.658Z,98897.47
2018-01-15T20:33:52.610Z,98898.47
2018-01-15T20:36:18.546Z,98884.30
2018-01-15T20:38:44.495Z,98885.00
2018-01-15T20:41:10.450Z,98888.34
2018-01-15T20:43:36.393Z,98887.05
2018-01-15T20:46:02.409Z,98889.58
2018-01-15T20:48:28.406Z,98888.70
2018-01-15T20:50:54.341Z,98880.59
2018-01-15T20:53:20.302Z,98880.82
2018-01-15T20:55:46.242Z,98869.64
2018-01-15T20:58:12.286Z,98875.47
2018-01-15T21:00:38.340Z,98869.45
2018-01-15T21:03:04.282Z,98871.98
2018-01-15T21:05:30.245Z,98867.10
2018-01-15T21:07:56.223Z,98863.77
2018-01-15T21:10:22.154Z,98863.58
2018-01-15T21:12:48.106Z,98862.96
2018-01-15T21:15:14.154Z,98854.95
2018-01-15T21:17:40.116Z,98865.31
2018-01-15T21:20:06.080Z,98851.11
2018-01-15T21:22:32.019Z,98860.64
2018-01-15T21:24:57.995Z,98858.70
2018-01-15T21:27:24.037Z,98851.95
2018-01-15T21:29:50.593Z,98851.63
2018-01-15T21:32:16.605Z,98847.16
2018-01-15T21:34:42.561Z,98850.23
2018-01-15T21:37:08.526Z,98850.20
2018-01-15T21:39:34.477Z,98839.59
2018-01-15T21:42:00.433Z,98847.77
2018-01-15T21:44:26.431Z,98837.50
2018-01-15T21:46:52.379Z,98839.31
2018-01-15T21:49:18.329Z,98847.04
2018-01-15T21:51:44.306Z,98834.83
2018-01-15T21:54:10.266Z,98842.34
2018-01-15T21:56:36.210Z,98850.33
2018-01-15T21:59:02.156Z,98841.32
2018-01-15T22:01:28.101Z,98842.34
2018-01-15T22:03:54.058Z,98840.73
2018-01-15T22:06:20.010Z,98847.59
2018-01-15T22:08:45.969Z,98850.00
2018-01-15T22:11:11.909Z,98847.39
2018-01-15T22:13:37.857Z,98849.38
2018-01-15T22:16:03.814Z,98849.73
2018-01-15T22:18:29.813Z,98844.50
2018-01-15T22:20:55.757Z,98841.02
2018-01-15T22:23:21.706Z,98842.00
2018-01-15T22:25:47.684Z,98840.46
2018-01-15T22:28:13.644Z,98834.05
2018-01-15T22:30:39.614Z,98836.43
2018-01-15T22:33:05.572Z,98838.56
2018-01-15T22:35:31.537Z,98834.67
2018-01-15T22:37:57.484Z,98835.52
2018-01-15T22:40:23.514Z,98832.37
2018-01-15T22:42:49.471Z,98828.92
2018-01-15T22:45:15.408Z,98826.79
2018-01-15T22:47:41.365Z,98822.31
2018-01-15T22:50:07.313Z,98820.77
2018-01-15T22:52:33.265Z,98821.81
2018-01-15T22:54:59.208Z,98820.67
2018-01-15T22:57:25.152Z,98825.31
2018-01-15T22:59:51.101Z,98822.38
2018-01-15T23:02:17.054Z,98821.58
2018-01-15T23:04:42.997Z,98825.95
2018-01-15T23:07:08.961Z,98828.87
2018-01-15T23:09:34.922Z,98833.74
2018-01-15T23:12:00.894Z,98843.16
2018-01-15T23:14:26.942Z,98843.20
2018-01-15T23:16:52.884Z,98841.04
2018-01-15T23:19:18.862Z,98841.77
2018-01-15T23:21:44.809Z,98837.92
2018-01-15T23:24:10.771Z,98845.69
2018-01-15T23:26:36.721Z,98841.04
2018-01-15T23:29:02.696Z,98845.80
2018-01-15T23:31:28.750Z,98839.73
2018-01-15T23:33:54.900Z,98843.05
2018-01-15T23:36:20.839Z,98858.20
2018-01-15T23:38:46.886Z,98873.73
2018-01-15T23:41:12.829Z,98878.08
2018-01-15T23:43:38.881Z,98880.09
2018-01-15T23:46:04.838Z,98892.36
2018-01-15T23:48:30.792Z,98899.94
2018-01-15T23:50:56.746Z,98896.27
2018-01-15T23:53:22.685Z,98897.58
2018-01-15T23:55:48.666Z,98901.66
2018-01-15T23:58:14.617Z,98910.78
